UKDRUKLL

Guest
Details From UKDR - Lozuvatka Intl
To UKLL - Lviv Intl
Flight Number -
Tags Generated
Created
Modified
Stats Distance 381 nm / 705 km
Max Altitude 0 ft / 0 m
Waypoints 3
Social Downloads 0
Likes 0
Share VATSIM

Download

Looking for another format? Having issues loading an existing format? Contact us
Advertisement - Login to hide

Notes

Generated

Route

UKDR LIV UKLL

ID Type Via Altitude Latitude Longitude Leg Dist Tot Dist Heading (true) Name
O UKDR APT - 0 ft / 0 m 48.05444˚ 33.21167˚ - 0 nm - -
LIV VOR - 0 ft / 0 m 49.81160˚ 23.95097˚ 380 nm 380 nm 290° / 283° LVIV VOR-DME
O UKLL APT - 0 ft / 0 m 49.82083˚ 23.94389˚ 0 nm 380 nm 334° / 334° -

Altitude Profile

Advertisement - Login to hide

Weather


0- 5 10 15 20 25 30 35+ Temperature / ° C

Clouds and Precipitation
Forecast for 2017-12-18 12:00 UTC. Updated 2 hours ago

Ground ~20,000 ft ~40,000 ft Winds

UKDR

Details ICAO UKDR (KWG)
Name LOZUVATKA INTL
Region Ukraine
Timezone Europe/Kiev (UTC+2.0)
Stats Elevation 408 ft / 124 m (AMSL)
Location 48.043333° 33.210000°
Runways 1
Magnetic Variation 7.458° E

METAR

UKDR 181100Z 22008G13MPS 4500 -DZ OVC005 03/03 Q1005 R36/290257 BECMG 27008G15MPS

Decode

TAF

TAF AMD UKDR 180749Z 1807/1906 14007G12MPS 1800 -SHRASN BR BKN004 BKN015CB TEMPO 1807/1810 26005MPS 0500 -SHRASN FG VV002 BECMG 1810/1812 27008G15MPS 9999 NSW BKN011 SCT020CB TEMPO 1812/1818 3100 -SHSN BECMG 1900/1902 VRB01MPS TX08/1807Z TNM01/1906Z

Decode

Departure Runways

ID Width Length Bearing (true) Bearing (mag) Surface Threshold Offset Overrun Length
18 138 ft / 42 m 8,150 ft / 2,484 m 185.73° 178.27° Concrete 0 ft / 0 m 0 ft / 0 m
36 138 ft / 42 m 8,150 ft / 2,484 m 5.73° 358.27° Concrete 0 ft / 0 m 0 ft / 0 m

UKLL

Details ICAO UKLL (LWO)
Name LVIV INTL
Region Ukraine
Timezone Europe/Kiev (UTC+2.0)
Stats Elevation 1,071 ft / 326 m (AMSL)
Location 49.812638° 23.956111°
Runways 1
Magnetic Variation 6.101° E

METAR

UKLL 181100Z 33004MPS 4800 BR BKN005 OVC030 M02/M03 Q1021 R31/420350 NOSIG

Decode

TAF

TAF TAF AMD UKLL 180817Z 1808/1906 02005MPS 2100 BR OVC003 TEMPO 1808/1906 0600 SHSN FZFG BKN001 BKN015CB BECMG 1821/1822 34005MPS TXM00/1811Z TNM04/1903Z

Decode

Destination Runways

ID Width Length Bearing (true) Bearing (mag) Surface Threshold Offset Overrun Length
13 148 ft / 45 m 8,300 ft / 2,530 m 136.09° 129.99° Asphalt 0 ft / 0 m 160 ft / 49 m
31 148 ft / 45 m 8,300 ft / 2,530 m 316.11° 310.01° Asphalt 0 ft / 0 m 145 ft / 44 m

Approach Navaids

Runway Type Ident Frequency Range Bearing (true) Bearing (mag) Slope Elevation
13 Localiser ILO 109.50 MHz 18 nm / 33 km 135.94° 129.84° - 1,071 ft / 326 m (AMSL)
13 Glidescope ILO 109.50 MHz 10 nm / 19 km 136.10° 129.99° 3.00° 1,071 ft / 326 m (AMSL)
31 Localiser ILV 110.30 MHz 18 nm / 33 km 315.64° 309.54° - 1,071 ft / 326 m (AMSL)
31 Glidescope ILV 110.30 MHz 10 nm / 19 km 316.10° 309.99° 3.00° 1,071 ft / 326 m (AMSL)